Time;durP1;ratioP1;P1;durP2;ratioP2;P2;SDS_P1;SDS_P2;PMS_P1;PMS_P2;Temp;Humidity;BMP_temperature;BMP_pressure;BME280_temperature;BME280_humidity;BME280_pressure;Samples;Min_cycle;Max_cycle;Signal;HPM_P1;HPM_P2
2024/02/20 00:00:25;;;;;;;5.80;3.90;;;18.60;75.60;;;;;;5071669;28;20426;-75
2024/02/20 00:02:55;;;;;;;6.20;3.70;;;18.60;75.80;;;;;;5072505;28;20812;-76
2024/02/20 00:05:23;;;;;;;5.80;3.97;;;18.60;75.50;;;;;;5065325;28;20499;-74
2024/02/20 00:07:50;;;;;;;4.13;3.57;;;18.60;75.50;;;;;;5071889;28;20458;-75
2024/02/20 00:10:18;;;;;;;6.63;3.63;;;18.60;75.40;;;;;;5070083;28;20507;-74
2024/02/20 00:12:47;;;;;;;6.80;3.80;;;18.60;75.50;;;;;;5074860;28;20453;-74
2024/02/20 00:15:15;;;;;;;7.23;4.10;;;18.60;75.30;;;;;;5071752;28;20445;-74
2024/02/20 00:17:44;;;;;;;7.63;3.90;;;18.50;75.20;;;;;;5072195;28;21003;-75
2024/02/20 00:20:14;;;;;;;6.47;4.00;;;18.50;74.90;;;;;;5072767;28;20511;-74
2024/02/20 00:22:42;;;;;;;7.93;4.00;;;18.50;75.20;;;;;;5065120;28;20477;-74
2024/02/20 00:25:10;;;;;;;5.07;4.00;;;18.50;75.20;;;;;;5072359;28;20465;-74
2024/02/20 00:27:38;;;;;;;7.77;4.20;;;18.50;75.20;;;;;;5057524;28;20481;-75
2024/02/20 00:30:10;;;;;;;9.40;3.53;;;18.50;75.30;;;;;;5072306;28;20620;-74
2024/02/20 00:32:38;;;;;;;5.50;4.00;;;18.50;75.10;;;;;;5071934;28;20445;-75
2024/02/20 00:35:08;;;;;;;4.97;3.40;;;18.50;75.30;;;;;;5071964;28;20940;-75
2024/02/20 00:37:38;;;;;;;9.00;4.50;;;18.50;75.30;;;;;;5071511;28;20453;-74
2024/02/20 00:40:08;;;;;;;7.40;3.63;;;18.50;75.10;;;;;;5072170;28;20516;-74
2024/02/20 00:42:36;;;;;;;4.33;3.57;;;18.50;75.20;;;;;;5071777;28;20434;-74
2024/02/20 00:45:04;;;;;;;5.40;3.57;;;18.50;75.30;;;;;;5060925;28;20464;-74
2024/02/20 00:47:32;;;;;;;4.60;3.73;;;18.50;75.20;;;;;;5051995;28;20514;-74
2024/02/20 00:50:00;;;;;;;6.70;3.47;;;18.50;75.50;;;;;;5058851;28;20471;-74
2024/02/20 00:52:28;;;;;;;9.87;3.97;;;18.50;75.20;;;;;;5072105;28;20447;-74
2024/02/20 00:54:58;;;;;;;7.10;3.87;;;18.40;75.20;;;;;;5064790;28;20450;-75
2024/02/20 00:57:26;;;;;;;5.63;3.57;;;18.40;75.00;;;;;;5071392;28;20488;-75
2024/02/20 00:59:54;;;;;;;7.90;4.13;;;18.40;75.10;;;;;;5066047;28;20446;-75
2024/02/20 01:02:22;;;;;;;10.50;4.40;;;18.40;74.90;;;;;;5052869;28;20859;-75
2024/02/20 01:04:50;;;;;;;7.83;4.13;;;18.50;75.00;;;;;;5071785;28;20520;-75
2024/02/20 01:07:18;;;;;;;7.50;4.03;;;18.40;75.00;;;;;;5071566;28;20462;-75
2024/02/20 01:09:46;;;;;;;8.97;4.43;;;18.40;75.00;;;;;;5071632;28;20593;-75
2024/02/20 01:12:16;;;;;;;9.30;4.10;;;18.40;74.80;;;;;;5064778;28;20507;-75
2024/02/20 01:14:44;;;;;;;8.03;4.20;;;18.40;75.00;;;;;;5074862;28;20481;-74
2024/02/20 01:17:12;;;;;;;8.87;4.30;;;18.40;74.60;;;;;;5072027;28;20511;-74
2024/02/20 01:19:40;;;;;;;7.87;4.07;;;18.40;74.60;;;;;;5073180;28;20457;-74
2024/02/20 01:22:08;;;;;;;10.13;3.90;;;18.40;74.80;;;;;;5074122;28;20487;-74
2024/02/20 01:24:36;;;;;;;10.97;4.00;;;18.40;74.80;;;;;;5062914;28;20430;-74
2024/02/20 01:27:05;;;;;;;10.67;3.83;;;18.40;75.10;;;;;;5073057;28;20512;-74
2024/02/20 01:29:34;;;;;;;11.40;3.70;;;18.40;74.50;;;;;;5070208;28;20445;-75
2024/02/20 01:32:02;;;;;;;7.43;3.93;;;18.40;74.70;;;;;;5070416;28;20612;-74
2024/02/20 01:34:29;;;;;;;7.30;4.00;;;18.30;74.60;;;;;;5069897;28;20457;-74
2024/02/20 01:36:57;;;;;;;7.60;3.70;;;18.30;74.40;;;;;;5064380;28;20430;-74
2024/02/20 01:39:26;;;;;;;7.80;4.10;;;18.30;74.20;;;;;;5061664;28;20437;-74
2024/02/20 01:41:54;;;;;;;13.77;4.70;;;18.30;74.30;;;;;;5069747;28;20430;-73
2024/02/20 01:44:22;;;;;;;7.93;3.90;;;18.30;75.00;;;;;;5068577;28;20477;-74
2024/02/20 01:46:52;;;;;;;9.90;4.80;;;18.30;74.40;;;;;;5066890;28;20438;-74
2024/02/20 01:49:20;;;;;;;9.53;4.00;;;18.20;74.30;;;;;;5075089;28;20454;-74
2024/02/20 01:51:49;;;;;;;14.77;3.73;;;18.20;74.30;;;;;;5075037;28;20868;-74
2024/02/20 01:54:16;;;;;;;8.57;4.10;;;18.20;74.20;;;;;;5074619;28;20437;-74
2024/02/20 01:56:44;;;;;;;9.47;4.70;;;18.20;74.10;;;;;;5073412;28;20460;-75
2024/02/20 01:59:12;;;;;;;11.03;4.70;;;18.20;73.90;;;;;;5074430;28;20458;-74
2024/02/20 02:01:40;;;;;;;11.23;5.00;;;18.20;73.90;;;;;;5074285;28;20465;-74
2024/02/20 02:04:10;;;;;;;12.37;4.90;;;18.20;73.80;;;;;;5074816;28;20509;-75
2024/02/20 02:06:39;;;;;;;10.43;4.60;;;18.20;74.00;;;;;;5077071;28;20525;-75
2024/02/20 02:09:07;;;;;;;8.00;4.97;;;18.20;74.00;;;;;;5087690;28;20484;-74
2024/02/20 02:11:39;;;;;;;10.60;4.80;;;18.20;73.70;;;;;;5084703;28;20508;-73
2024/02/20 02:14:07;;;;;;;16.80;4.70;;;18.20;73.70;;;;;;5080131;28;20428;-74
2024/02/20 02:16:35;;;;;;;9.57;4.93;;;18.10;74.00;;;;;;5076030;28;20501;-74
2024/02/20 02:19:03;;;;;;;9.07;4.70;;;18.10;73.90;;;;;;5074982;28;20500;-75
2024/02/20 02:21:33;;;;;;;11.57;5.03;;;18.10;73.50;;;;;;5074210;28;20459;-74
2024/02/20 02:24:01;;;;;;;12.37;5.10;;;18.10;73.50;;;;;;5073588;28;20445;-74
2024/02/20 02:26:30;;;;;;;10.67;4.57;;;18.10;73.70;;;;;;5074271;28;20476;-74
2024/02/20 02:28:58;;;;;;;9.53;4.90;;;18.10;73.90;;;;;;5072922;28;20556;-74
2024/02/20 02:31:26;;;;;;;14.80;5.77;;;18.10;74.00;;;;;;5073258;28;20509;-74
2024/02/20 02:33:54;;;;;;;14.17;5.50;;;18.10;73.80;;;;;;5073720;28;20457;-75
2024/02/20 02:36:24;;;;;;;14.83;6.33;;;18.10;73.70;;;;;;5073965;28;20441;-74
2024/02/20 02:38:53;;;;;;;21.00;7.20;;;18.10;73.60;;;;;;5073346;28;20453;-74
2024/02/20 02:41:22;;;;;;;12.60;6.07;;;18.10;73.50;;;;;;5073763;28;20464;-74
2024/02/20 02:43:51;;;;;;;15.27;7.70;;;18.10;73.60;;;;;;5073501;28;20472;-74
2024/02/20 02:46:20;;;;;;;19.60;8.13;;;18.10;73.70;;;;;;5072021;28;20465;-75
2024/02/20 02:48:48;;;;;;;17.40;8.20;;;18.10;73.60;;;;;;5073082;28;20457;-75
2024/02/20 02:51:17;;;;;;;19.70;8.60;;;18.10;73.30;;;;;;5073573;28;20474;-74
2024/02/20 02:53:45;;;;;;;17.90;9.40;;;18.10;73.40;;;;;;5073138;28;20465;-74
2024/02/20 02:56:13;;;;;;;25.50;9.80;;;18.10;73.80;;;;;;5072003;28;20495;-74
2024/02/20 02:58:41;;;;;;;19.13;9.33;;;18.10;73.40;;;;;;5072895;28;20465;-74
2024/02/20 03:01:12;;;;;;;19.00;9.20;;;18.00;73.40;;;;;;5067099;28;20525;-74
2024/02/20 03:03:41;;;;;;;20.90;10.03;;;18.00;73.50;;;;;;5073281;28;20449;-74
2024/02/20 03:06:09;;;;;;;23.67;10.53;;;18.00;73.50;;;;;;5072977;28;20490;-75
2024/02/20 03:08:37;;;;;;;20.83;10.07;;;18.00;73.30;;;;;;5072521;28;21019;-75
2024/02/20 03:11:06;;;;;;;25.03;10.90;;;18.00;73.30;;;;;;5066395;28;20505;-74
2024/02/20 03:13:35;;;;;;;23.63;11.23;;;18.10;73.40;;;;;;5077344;28;20510;-73
2024/02/20 03:16:04;;;;;;;19.00;9.50;;;18.00;73.10;;;;;;5072258;28;20434;-74
2024/02/20 03:18:34;;;;;;;26.37;11.37;;;18.00;73.30;;;;;;5072413;28;20478;-74
2024/02/20 03:21:02;;;;;;;19.80;9.67;;;18.00;72.80;;;;;;5072773;28;20536;-75
2024/02/20 03:23:30;;;;;;;20.53;10.60;;;18.00;73.30;;;;;;5073002;28;20579;-74
2024/02/20 03:25:59;;;;;;;19.67;10.30;;;18.00;73.20;;;;;;5072643;28;20948;-74
2024/02/20 03:28:28;;;;;;;24.03;10.80;;;18.00;73.20;;;;;;5071538;28;20481;-74
2024/02/20 03:30:56;;;;;;;27.33;11.30;;;18.00;73.10;;;;;;5064865;28;20476;-74
2024/02/20 03:33:26;;;;;;;21.37;9.43;;;18.00;73.00;;;;;;5073000;28;20486;-74
2024/02/20 03:35:57;;;;;;;20.50;10.33;;;18.00;73.00;;;;;;5072042;28;20450;-74
2024/02/20 03:38:25;;;;;;;26.70;10.30;;;18.00;73.00;;;;;;5072631;28;20457;-73
2024/02/20 03:40:53;;;;;;;21.67;10.20;;;18.00;72.90;;;;;;5072323;28;20438;-74
2024/02/20 03:43:21;;;;;;;25.33;11.03;;;18.00;73.40;;;;;;5072245;28;20478;-73
2024/02/20 03:45:49;;;;;;;27.73;11.20;;;18.00;73.10;;;;;;5072084;28;20544;-74
2024/02/20 03:48:17;;;;;;;26.07;10.93;;;18.00;73.00;;;;;;5072274;28;20462;-74
2024/02/20 03:50:46;;;;;;;21.70;10.00;;;17.90;73.00;;;;;;5072128;28;20490;-74
2024/02/20 03:53:15;;;;;;;23.57;11.37;;;17.90;72.70;;;;;;5072334;28;20450;-76
2024/02/20 03:55:43;;;;;;;25.23;11.37;;;18.00;72.60;;;;;;5072446;28;20537;-75
2024/02/20 03:58:12;;;;;;;22.80;10.50;;;17.90;72.70;;;;;;5071109;28;20560;-73
2024/02/20 04:00:40;;;;;;;25.20;11.03;;;17.90;72.50;;;;;;5072193;28;20449;-75
2024/02/20 04:03:08;;;;;;;21.37;11.37;;;17.90;72.60;;;;;;5072094;28;20999;-75
2024/02/20 04:05:37;;;;;;;25.60;11.10;;;17.90;72.50;;;;;;5072052;28;20452;-75
2024/02/20 04:08:05;;;;;;;20.13;10.20;;;17.90;72.60;;;;;;5071987;28;20500;-75
2024/02/20 04:10:34;;;;;;;20.50;9.87;;;17.90;72.70;;;;;;5072290;28;20508;-74
2024/02/20 04:13:02;;;;;;;26.43;11.30;;;17.90;72.60;;;;;;5071821;28;20523;-75
2024/02/20 04:15:30;;;;;;;21.73;10.03;;;17.80;72.80;;;;;;5071509;28;20458;-74
2024/02/20 04:17:58;;;;;;;18.70;9.30;;;17.80;72.60;;;;;;5072169;28;20468;-75
2024/02/20 04:20:26;;;;;;;28.30;10.33;;;17.90;72.50;;;;;;5072244;28;20441;-75
2024/02/20 04:22:54;;;;;;;23.10;9.97;;;17.90;72.60;;;;;;5071791;28;20494;-75
2024/02/20 04:25:22;;;;;;;24.63;10.50;;;17.90;72.40;;;;;;5071667;28;20521;-74
2024/02/20 04:27:52;;;;;;;23.73;10.50;;;17.90;72.40;;;;;;5072239;28;20465;-75
2024/02/20 04:30:20;;;;;;;22.93;9.77;;;17.80;72.50;;;;;;5065806;28;20452;-75
2024/02/20 04:32:48;;;;;;;19.53;9.03;;;17.90;72.40;;;;;;5071126;28;20474;-75
2024/02/20 04:35:16;;;;;;;21.53;9.60;;;17.80;72.40;;;;;;5072244;28;20433;-75
2024/02/20 04:37:44;;;;;;;18.73;8.83;;;17.80;72.40;;;;;;5066980;28;20545;-75
2024/02/20 04:40:13;;;;;;;18.67;7.93;;;17.80;72.20;;;;;;5071964;28;20442;-74
2024/02/20 04:42:41;;;;;;;21.27;9.33;;;17.80;72.20;;;;;;5071920;28;20434;-75
2024/02/20 04:45:11;;;;;;;22.30;9.40;;;17.80;72.10;;;;;;5071836;28;20433;-75
2024/02/20 04:47:39;;;;;;;24.60;10.03;;;17.80;72.00;;;;;;5074398;28;20519;-75
2024/02/20 04:50:08;;;;;;;23.00;9.23;;;17.80;71.90;;;;;;5072080;28;20948;-75
2024/02/20 04:52:37;;;;;;;22.73;9.20;;;17.80;72.00;;;;;;5063339;28;20465;-75
2024/02/20 04:55:05;;;;;;;18.30;8.10;;;17.70;71.70;;;;;;5075576;28;20441;-74
2024/02/20 04:57:34;;;;;;;20.63;8.43;;;17.70;71.90;;;;;;5075069;28;20449;-75
2024/02/20 05:00:05;;;;;;;19.60;8.90;;;17.70;71.70;;;;;;5074039;28;20449;-75
2024/02/20 05:02:37;;;;;;;23.43;9.20;;;17.70;71.90;;;;;;5074994;28;20441;-75
2024/02/20 05:05:05;;;;;;;21.87;8.57;;;17.70;71.70;;;;;;5055418;28;20434;-75
2024/02/20 05:07:33;;;;;;;22.47;8.40;;;17.70;71.90;;;;;;5070831;28;20449;-74
2024/02/20 05:10:01;;;;;;;19.60;8.90;;;17.70;71.80;;;;;;5075300;28;20477;-76
2024/02/20 05:12:29;;;;;;;20.13;8.10;;;17.70;71.40;;;;;;5075237;28;20472;-75
2024/02/20 05:14:57;;;;;;;16.93;8.00;;;17.70;71.50;;;;;;5074253;28;20481;-75
2024/02/20 05:17:25;;;;;;;25.13;8.83;;;17.70;71.70;;;;;;5069909;28;20534;-75
2024/02/20 05:19:54;;;;;;;16.90;7.90;;;17.70;71.70;;;;;;5075054;28;20506;-74
2024/02/20 05:22:22;;;;;;;20.20;8.50;;;17.70;71.70;;;;;;5074924;28;20498;-75
2024/02/20 05:24:50;;;;;;;18.83;8.10;;;17.60;71.60;;;;;;5074690;28;20524;-75
2024/02/20 05:27:18;;;;;;;18.63;8.20;;;17.70;71.50;;;;;;5074777;28;20492;-74
2024/02/20 05:29:46;;;;;;;24.37;9.30;;;17.60;71.00;;;;;;5074944;28;20472;-75
2024/02/20 05:32:14;;;;;;;22.00;7.70;;;17.60;71.10;;;;;;5081168;28;20975;-75
2024/02/20 05:34:42;;;;;;;22.60;7.97;;;17.60;71.40;;;;;;5086805;28;20446;-75
2024/02/20 05:37:11;;;;;;;21.43;8.17;;;17.60;71.30;;;;;;5086105;28;20433;-74
2024/02/20 05:39:38;;;;;;;20.20;7.53;;;17.60;71.00;;;;;;5065692;28;20441;-75
2024/02/20 05:42:07;;;;;;;16.57;7.60;;;17.50;71.20;;;;;;5075838;28;20453;-74
2024/02/20 05:44:35;;;;;;;18.33;7.40;;;17.60;70.70;;;;;;5076197;28;20437;-75
2024/02/20 05:47:03;;;;;;;18.23;7.30;;;17.50;71.00;;;;;;5072153;28;20578;-74
2024/02/20 05:49:30;;;;;;;23.20;7.00;;;17.50;70.90;;;;;;5074152;28;20469;-75
2024/02/20 05:51:59;;;;;;;16.40;7.30;;;17.50;70.60;;;;;;5069221;28;20457;-75
2024/02/20 05:54:28;;;;;;;20.07;7.60;;;17.50;70.70;;;;;;5074671;28;20465;-75
2024/02/20 05:56:57;;;;;;;16.10;7.30;;;17.50;70.40;;;;;;5074172;28;20434;-75
2024/02/20 05:59:25;;;;;;;14.60;6.50;;;17.50;70.70;;;;;;5071073;28;20488;-75
2024/02/20 06:01:53;;;;;;;17.20;7.47;;;17.50;70.30;;;;;;5072119;28;20505;-75
2024/02/20 06:04:21;;;;;;;19.33;6.90;;;17.50;70.30;;;;;;5074278;28;20438;-75
2024/02/20 06:06:49;;;;;;;18.30;7.80;;;17.40;70.40;;;;;;5073912;28;20541;-74
2024/02/20 06:09:18;;;;;;;17.77;6.77;;;17.40;70.20;;;;;;5074126;28;20445;-75
2024/02/20 06:11:48;;;;;;;16.13;7.40;;;17.40;70.20;;;;;;5074293;28;20440;-75
2024/02/20 06:14:16;;;;;;;18.97;7.23;;;17.40;70.30;;;;;;5074256;28;20506;-76
2024/02/20 06:16:44;;;;;;;18.80;6.90;;;17.40;70.40;;;;;;5080950;28;20457;-75
2024/02/20 06:19:13;;;;;;;17.47;6.43;;;17.40;70.20;;;;;;5058093;28;20548;-74
2024/02/20 06:21:42;;;;;;;14.40;7.10;;;17.40;70.10;;;;;;5073989;28;20465;-75
2024/02/20 06:24:11;;;;;;;15.30;6.90;;;17.40;70.20;;;;;;5074369;28;20545;-75
2024/02/20 06:26:39;;;;;;;12.73;6.67;;;17.40;70.20;;;;;;5073368;28;20509;-75
2024/02/20 06:29:10;;;;;;;20.70;6.87;;;17.40;70.10;;;;;;5074457;28;20454;-74
2024/02/20 06:31:38;;;;;;;17.37;7.13;;;17.30;69.80;;;;;;5074030;28;20441;-75
2024/02/20 06:34:09;;;;;;;16.90;6.10;;;17.30;70.00;;;;;;5072558;28;20470;-75
2024/02/20 06:36:38;;;;;;;17.00;6.87;;;17.30;69.60;;;;;;5073447;28;20446;-75
2024/02/20 06:39:06;;;;;;;17.13;6.93;;;17.30;69.60;;;;;;5073129;28;20548;-75
2024/02/20 06:41:34;;;;;;;20.87;6.20;;;17.30;69.40;;;;;;5073394;28;20503;-75
2024/02/20 06:44:02;;;;;;;19.10;6.77;;;17.30;69.70;;;;;;5073448;28;20434;-75
2024/02/20 06:46:31;;;;;;;17.13;6.03;;;17.30;69.70;;;;;;5066542;28;20434;-75
2024/02/20 06:49:00;;;;;;;19.37;6.20;;;17.30;69.70;;;;;;5072626;28;20462;-74
2024/02/20 06:51:27;;;;;;;12.30;5.30;;;17.30;69.40;;;;;;5059846;28;20526;-76
2024/02/20 06:53:56;;;;;;;19.03;6.63;;;17.30;69.40;;;;;;5072968;28;20476;-75
2024/02/20 06:56:24;;;;;;;11.30;5.80;;;17.30;69.40;;;;;;5073085;28;20469;-75
2024/02/20 06:58:52;;;;;;;13.90;5.77;;;17.40;69.60;;;;;;5072357;28;20479;-75
2024/02/20 07:01:20;;;;;;;16.77;6.40;;;17.40;69.50;;;;;;5072386;28;20457;-75
2024/02/20 07:03:52;;;;;;;19.87;6.60;;;17.30;69.40;;;;;;5073293;28;20466;-75
2024/02/20 07:06:21;;;;;;;20.63;6.43;;;17.30;69.50;;;;;;5053477;28;20423;-75
2024/02/20 07:08:49;;;;;;;13.27;6.20;;;17.40;69.40;;;;;;5067319;28;20461;-75
2024/02/20 07:11:17;;;;;;;18.47;6.90;;;17.40;69.40;;;;;;5065021;28;20430;-75
2024/02/20 07:13:45;;;;;;;13.67;5.90;;;17.40;69.70;;;;;;5073062;28;20481;-75
2024/02/20 07:16:14;;;;;;;17.73;6.00;;;17.40;69.50;;;;;;5072920;28;20437;-75
2024/02/20 07:18:43;;;;;;;13.97;5.60;;;17.40;69.20;;;;;;5072587;28;20485;-75
2024/02/20 07:21:12;;;;;;;14.00;5.70;;;17.40;69.40;;;;;;5064887;28;20444;-75
2024/02/20 07:23:40;;;;;;;20.43;6.30;;;17.40;69.50;;;;;;5060179;28;20462;-75
2024/02/20 07:26:07;;;;;;;10.10;5.30;;;17.40;69.50;;;;;;5053242;28;20477;-75
2024/02/20 07:28:36;;;;;;;13.47;5.80;;;17.50;69.40;;;;;;5053089;28;20469;-74
2024/02/20 07:31:04;;;;;;;18.27;5.40;;;17.50;69.30;;;;;;5061003;28;20433;-75
2024/02/20 07:33:33;;;;;;;16.63;6.10;;;17.50;69.50;;;;;;5073350;28;20469;-75
2024/02/20 07:36:05;;;;;;;17.13;6.33;;;17.50;69.40;;;;;;5072546;28;20505;-75
2024/02/20 07:38:35;;;;;;;12.43;5.47;;;17.50;69.20;;;;;;5072652;28;20453;-75
2024/02/20 07:41:03;;;;;;;16.37;5.60;;;17.50;69.50;;;;;;5071632;28;20466;-75
2024/02/20 07:43:31;;;;;;;13.80;6.00;;;17.50;69.30;;;;;;5073095;28;20433;-75
2024/02/20 07:46:04;;;;;;;11.53;5.00;;;17.50;69.20;;;;;;5072933;28;20437;-74
2024/02/20 07:48:32;;;;;;;10.63;4.60;;;17.50;69.30;;;;;;5072850;28;20524;-75
2024/02/20 07:51:00;;;;;;;13.47;4.80;;;17.50;69.50;;;;;;5072236;28;20503;-73
2024/02/20 07:53:28;;;;;;;17.93;5.10;;;17.60;69.60;;;;;;5072917;28;20496;-75
2024/02/20 07:55:58;;;;;;;14.30;5.30;;;17.60;69.60;;;;;;5072809;28;20473;-75
2024/02/20 07:58:28;;;;;;;19.53;5.70;;;17.60;69.70;;;;;;5073148;28;20491;-75
2024/02/20 08:01:09;;;;;;;11.20;4.80;;;17.60;69.60;;;;;;5071770;28;20446;-75
2024/02/20 08:03:37;;;;;;;12.93;4.73;;;17.70;69.50;;;;;;5066522;28;20417;-74
2024/02/20 08:06:06;;;;;;;11.47;4.80;;;17.70;69.50;;;;;;5072608;28;20883;-74
2024/02/20 08:08:34;;;;;;;16.73;5.20;;;17.70;69.40;;;;;;5063925;28;20458;-75
2024/02/20 08:11:04;;;;;;;13.00;5.10;;;17.70;69.10;;;;;;5071865;28;20502;-75
2024/02/20 08:13:32;;;;;;;15.50;5.33;;;17.70;69.30;;;;;;5070068;28;20470;-76
2024/02/20 08:16:01;;;;;;;13.13;5.30;;;17.80;69.30;;;;;;5072245;28;20483;-78
2024/02/20 08:18:29;;;;;;;13.03;4.50;;;17.80;69.10;;;;;;5071900;28;20483;-76
2024/02/20 08:20:57;;;;;;;11.90;4.77;;;17.80;69.20;;;;;;5057987;28;20521;-76
2024/02/20 08:23:25;;;;;;;11.90;4.90;;;17.80;69.40;;;;;;5075356;28;20437;-77
2024/02/20 08:25:53;;;;;;;12.77;4.33;;;17.90;69.30;;;;;;5058718;28;20474;-74
2024/02/20 08:28:23;;;;;;;15.13;4.97;;;17.90;69.20;;;;;;5071871;28;20473;-74
2024/02/20 08:30:51;;;;;;;9.87;4.67;;;17.90;69.10;;;;;;5069815;28;20446;-74
2024/02/20 08:33:19;;;;;;;12.13;5.00;;;18.00;69.50;;;;;;5075409;28;20440;-74
2024/02/20 08:35:47;;;;;;;14.83;5.03;;;18.00;69.20;;;;;;5072663;28;20450;-73
2024/02/20 08:38:15;;;;;;;20.20;4.90;;;18.00;69.00;;;;;;5079138;28;20534;-73
2024/02/20 08:40:43;;;;;;;12.80;4.23;;;18.00;69.00;;;;;;5071384;28;20470;-74
2024/02/20 08:43:12;;;;;;;21.37;5.67;;;18.00;69.00;;;;;;5056264;28;21006;-74
2024/02/20 08:45:41;;;;;;;12.20;4.93;;;18.00;68.70;;;;;;5070021;28;20491;-75
2024/02/20 08:48:09;;;;;;;12.73;4.40;;;18.00;69.00;;;;;;5075450;28;20457;-74
2024/02/20 08:50:38;;;;;;;14.93;4.00;;;18.00;69.00;;;;;;5062573;28;20430;-76
2024/02/20 08:53:10;;;;;;;15.20;4.70;;;18.00;69.00;;;;;;5073073;28;20445;-76
2024/02/20 08:55:39;;;;;;;16.20;5.00;;;18.10;69.10;;;;;;5078114;28;20477;-76
2024/02/20 08:58:07;;;;;;;12.90;5.07;;;18.10;69.10;;;;;;5076594;28;20534;-75
2024/02/20 09:00:35;;;;;;;17.53;4.70;;;18.10;69.20;;;;;;5077277;28;20437;-75
2024/02/20 09:03:05;;;;;;;12.47;4.67;;;18.10;69.10;;;;;;5073763;28;20528;-77
2024/02/20 09:05:34;;;;;;;15.97;3.73;;;18.10;69.20;;;;;;5072849;28;20472;-76
2024/02/20 09:08:03;;;;;;;15.27;4.43;;;18.20;69.40;;;;;;5074060;28;20453;-76
2024/02/20 09:10:31;;;;;;;11.60;4.70;;;18.20;69.30;;;;;;5074712;28;20429;-76
2024/02/20 09:12:59;;;;;;;13.83;4.33;;;18.30;69.50;;;;;;5075146;28;20433;-76
2024/02/20 09:15:27;;;;;;;11.90;4.50;;;18.30;69.50;;;;;;5074469;28;20473;-76
2024/02/20 09:17:55;;;;;;;11.40;3.90;;;18.30;69.40;;;;;;5074676;28;20492;-76
2024/02/20 09:20:25;;;;;;;13.23;4.23;;;18.40;69.50;;;;;;5075019;28;20453;-76
2024/02/20 09:22:53;;;;;;;16.43;4.87;;;18.40;69.20;;;;;;5074493;28;20445;-77
2024/02/20 09:25:21;;;;;;;12.40;4.30;;;18.50;69.20;;;;;;5073960;28;20520;-76
2024/02/20 09:27:50;;;;;;;14.97;4.67;;;18.50;69.10;;;;;;5074536;28;20454;-76
2024/02/20 09:30:18;;;;;;;10.00;4.10;;;18.50;69.50;;;;;;5074207;28;20465;-76
2024/02/20 09:32:46;;;;;;;11.23;3.83;;;18.60;69.30;;;;;;5073437;28;20430;-76
2024/02/20 09:35:14;;;;;;;12.40;4.30;;;18.60;69.50;;;;;;5073775;28;20486;-76
2024/02/20 09:37:44;;;;;;;10.50;4.00;;;18.60;69.10;;;;;;5073337;28;20540;-77
2024/02/20 09:40:16;;;;;;;12.57;5.07;;;18.60;69.10;;;;;;5074026;28;20465;-77
2024/02/20 09:42:44;;;;;;;15.03;4.07;;;18.60;69.20;;;;;;5073862;28;20445;-75
2024/02/20 09:45:17;;;;;;;9.47;3.60;;;18.70;69.50;;;;;;5073804;28;20446;-76
2024/02/20 09:47:45;;;;;;;9.10;4.17;;;18.70;69.30;;;;;;5073647;28;20485;-76
2024/02/20 09:50:15;;;;;;;10.37;4.40;;;18.70;69.20;;;;;;5073331;28;20426;-76
2024/02/20 09:52:45;;;;;;;12.00;3.97;;;18.70;69.30;;;;;;5073494;28;20437;-77
2024/02/20 09:55:13;;;;;;;16.20;4.70;;;18.80;69.60;;;;;;5073449;28;20469;-76
2024/02/20 09:57:41;;;;;;;14.70;4.27;;;18.80;69.70;;;;;;5073390;28;20517;-76
2024/02/20 10:00:10;;;;;;;14.17;3.90;;;18.80;69.40;;;;;;5073070;28;20484;-76
2024/02/20 10:02:38;;;;;;;11.67;3.73;;;18.80;69.40;;;;;;5073089;28;20433;-76
2024/02/20 10:05:06;;;;;;;15.80;4.43;;;18.90;69.80;;;;;;5073278;28;20525;-76
2024/02/20 10:07:38;;;;;;;18.80;5.47;;;19.00;69.70;;;;;;5065370;28;20467;-76
2024/02/20 10:10:09;;;;;;;13.53;3.90;;;19.00;69.40;;;;;;5073356;28;20426;-77
2024/02/20 10:12:39;;;;;;;11.47;4.00;;;19.10;69.40;;;;;;5062775;28;20450;-75
2024/02/20 10:15:08;;;;;;;8.50;3.50;;;19.20;69.30;;;;;;5070408;28;20860;-76
2024/02/20 10:17:36;;;;;;;13.13;3.70;;;19.30;69.20;;;;;;5073095;28;20468;-77
2024/02/20 10:20:10;;;;;;;13.77;3.70;;;19.30;69.20;;;;;;5073516;28;20442;-76
2024/02/20 10:22:39;;;;;;;13.43;3.87;;;19.40;69.00;;;;;;5072051;28;20452;-76
2024/02/20 10:25:13;;;;;;;13.60;4.70;;;19.40;69.10;;;;;;5076062;28;20445;-77
2024/02/20 10:27:43;;;;;;;12.10;4.23;;;19.40;69.10;;;;;;5073096;28;20492;-77
2024/02/20 10:30:12;;;;;;;14.67;4.50;;;19.40;69.10;;;;;;5072836;28;20438;-77
2024/02/20 10:32:40;;;;;;;14.13;4.03;;;19.40;69.20;;;;;;5073275;28;20433;-77
2024/02/20 10:35:09;;;;;;;16.43;4.63;;;19.40;69.20;;;;;;5073826;28;20473;-77
2024/02/20 10:37:38;;;;;;;11.20;3.80;;;19.40;69.20;;;;;;5065752;28;20460;-77
2024/02/20 10:40:08;;;;;;;12.30;4.17;;;19.40;69.30;;;;;;5073201;28;20442;-77
2024/02/20 10:42:55;;;;;;;13.47;4.73;;;19.50;69.50;;;;;;5067425;28;20450;-78
2024/02/20 10:45:23;;;;;;;11.90;4.30;;;19.50;69.50;;;;;;5071635;28;20426;-76
2024/02/20 10:47:52;;;;;;;14.17;4.00;;;19.60;69.90;;;;;;5072804;28;20491;-76
2024/02/20 10:50:20;;;;;;;9.00;3.73;;;19.70;69.70;;;;;;5072762;28;20443;-76
2024/02/20 10:52:50;;;;;;;10.83;3.90;;;19.80;70.00;;;;;;5074042;28;20438;-76
2024/02/20 10:55:18;;;;;;;9.53;3.83;;;19.90;69.50;;;;;;5073418;28;20473;-76
2024/02/20 10:58:00;;;;;;;12.77;4.43;;;20.00;69.60;;;;;;5074120;28;20465;-76
2024/02/20 11:00:33;;;;;;;13.27;4.20;;;20.20;70.20;;;;;;5073693;28;20438;-76
2024/02/20 11:03:04;;;;;;;11.37;3.60;;;20.40;70.70;;;;;;5072475;28;20541;-76
2024/02/20 11:05:33;;;;;;;17.47;4.70;;;20.70;70.00;;;;;;5072670;28;20446;-76
2024/02/20 11:08:06;;;;;;;17.13;4.33;;;20.90;69.80;;;;;;5072593;28;20467;-77
2024/02/20 11:10:35;;;;;;;14.37;4.20;;;21.10;69.60;;;;;;5072234;28;20484;-75
2024/02/20 11:13:13;;;;;;;14.50;4.13;;;21.40;69.70;;;;;;5071270;28;20454;-77
2024/02/20 11:15:43;;;;;;;10.23;4.20;;;21.50;68.90;;;;;;5064437;28;20465;-77
2024/02/20 11:18:18;;;;;;;12.40;4.27;;;21.80;69.10;;;;;;5072048;28;20473;-77
2024/02/20 11:20:47;;;;;;;9.03;3.73;;;22.00;68.60;;;;;;5065563;28;20433;-78
2024/02/20 11:23:15;;;;;;;11.40;3.87;;;22.10;68.50;;;;;;5071788;28;20487;-77
2024/02/20 11:25:42;;;;;;;16.33;4.47;;;22.40;68.40;;;;;;5071611;28;20483;-77
2024/02/20 11:28:16;;;;;;;11.77;4.47;;;22.70;68.00;;;;;;5071523;28;20454;-76
2024/02/20 11:30:45;;;;;;;12.17;4.10;;;22.80;67.30;;;;;;5064285;28;20445;-77
2024/02/20 11:33:15;;;;;;;10.97;3.90;;;22.90;66.80;;;;;;5072274;28;20513;-77
2024/02/20 11:35:45;;;;;;;9.80;4.43;;;22.90;66.60;;;;;;5062900;28;20436;-76
2024/02/20 11:38:16;;;;;;;14.03;4.63;;;22.90;66.70;;;;;;5069820;28;20991;-76
2024/02/20 11:40:44;;;;;;;10.77;3.87;;;23.00;66.60;;;;;;5071444;28;20392;-75
2024/02/20 11:43:12;;;;;;;10.90;4.03;;;23.00;66.50;;;;;;5069877;28;20420;-77
2024/02/20 11:45:42;;;;;;;11.30;4.10;;;23.10;66.50;;;;;;5070108;28;20434;-78
2024/02/20 11:48:10;;;;;;;9.83;3.87;;;23.20;66.50;;;;;;5071511;28;20481;-78
2024/02/20 11:50:40;;;;;;;8.87;3.63;;;23.50;66.10;;;;;;5071755;28;20416;-77
2024/02/20 11:53:08;;;;;;;15.70;4.10;;;23.80;66.10;;;;;;5072473;28;20443;-76
2024/02/20 11:55:40;;;;;;;7.63;3.53;;;24.20;65.10;;;;;;5071375;28;20475;-77
2024/02/20 11:58:09;;;;;;;9.47;3.73;;;24.50;64.00;;;;;;5067067;28;20428;-77
2024/02/20 12:00:38;;;;;;;11.93;3.93;;;24.80;63.50;;;;;;5071716;28;20401;-77
2024/02/20 12:03:07;;;;;;;9.10;4.10;;;24.70;61.90;;;;;;5071649;28;20459;-77
2024/02/20 12:05:40;;;;;;;9.10;3.60;;;24.80;62.50;;;;;;5070745;28;20439;-76
2024/02/20 12:08:12;;;;;;;10.27;4.13;;;24.70;61.70;;;;;;5071582;28;20428;-75
2024/02/20 12:10:41;;;;;;;10.10;3.90;;;24.50;62.00;;;;;;5071797;28;20499;-76
2024/02/20 12:13:16;;;;;;;8.73;3.80;;;24.30;62.20;;;;;;5071737;28;20464;-75
2024/02/20 12:15:45;;;;;;;12.80;4.07;;;24.10;62.40;;;;;;5071145;28;20505;-77
2024/02/20 12:18:22;;;;;;;13.50;4.27;;;24.00;62.60;;;;;;5070984;28;20485;-76
2024/02/20 12:20:51;;;;;;;13.53;4.27;;;23.80;62.90;;;;;;5071400;28;20470;-77
2024/02/20 12:23:19;;;;;;;8.60;3.87;;;23.70;63.50;;;;;;5074889;28;20830;-76
2024/02/20 12:25:47;;;;;;;11.60;3.70;;;23.60;63.90;;;;;;5074354;28;20404;-76
2024/02/20 12:28:15;;;;;;;12.83;4.10;;;23.50;64.70;;;;;;5091018;28;20424;-76
2024/02/20 12:30:48;;;;;;;7.20;3.23;;;23.40;64.00;;;;;;5077911;28;20574;-76
2024/02/20 12:33:17;;;;;;;14.10;4.03;;;23.30;64.30;;;;;;5074877;28;20408;-76
2024/02/20 12:35:46;;;;;;;12.10;3.77;;;23.30;64.50;;;;;;5073044;28;20448;-75
2024/02/20 12:38:14;;;;;;;10.60;3.90;;;23.10;64.60;;;;;;5072160;28;20444;-75
2024/02/20 12:40:42;;;;;;;12.63;4.10;;;23.10;64.60;;;;;;5071762;28;20453;-75
2024/02/20 12:43:12;;;;;;;12.57;4.00;;;22.90;65.10;;;;;;5071598;28;20416;-75
2024/02/20 12:45:40;;;;;;;17.47;3.63;;;23.00;65.20;;;;;;5071288;28;20829;-76